sensor_id;sensor_type;location;lat;lon;timestamp;pressure;altitude;pressure_sealevel;temperature;humidity
74790;BME280;63318;52.406;13.416;2023-05-23T00:01:19;100815.15;;;15.37;55.09
74790;BME280;63318;52.406;13.416;2023-05-23T00:03:47;100813.75;;;15.34;55.15
74790;BME280;63318;52.406;13.416;2023-05-23T00:06:19;100810.14;;;15.31;55.78
74790;BME280;63318;52.406;13.416;2023-05-23T00:08:48;100804.77;;;15.28;56.63
74790;BME280;63318;52.406;13.416;2023-05-23T00:11:16;100801.95;;;15.25;56.53
74790;BME280;63318;52.406;13.416;2023-05-23T00:13:44;100796.86;;;15.22;56.49
74790;BME280;63318;52.406;13.416;2023-05-23T00:16:12;100798.18;;;15.20;56.57
74790;BME280;63318;52.406;13.416;2023-05-23T00:18:41;100796.82;;;15.17;56.55
74790;BME280;63318;52.406;13.416;2023-05-23T00:21:09;100793.94;;;15.15;56.77
74790;BME280;63318;52.406;13.416;2023-05-23T00:23:38;100791.75;;;15.12;56.66
74790;BME280;63318;52.406;13.416;2023-05-23T00:26:06;100787.72;;;15.09;56.63
74790;BME280;63318;52.406;13.416;2023-05-23T00:28:35;100784.50;;;15.06;56.57
74790;BME280;63318;52.406;13.416;2023-05-23T00:31:04;100783.02;;;15.05;56.40
74790;BME280;63318;52.406;13.416;2023-05-23T00:33:32;100779.25;;;15.02;56.34
74790;BME280;63318;52.406;13.416;2023-05-23T00:36:00;100781.42;;;15.00;56.68
74790;BME280;63318;52.406;13.416;2023-05-23T00:38:28;100784.48;;;14.97;56.74
74790;BME280;63318;52.406;13.416;2023-05-23T00:40:57;100781.51;;;14.94;56.95
74790;BME280;63318;52.406;13.416;2023-05-23T00:43:25;100772.59;;;14.91;56.87
74790;BME280;63318;52.406;13.416;2023-05-23T00:45:53;100771.27;;;14.90;57.33
74790;BME280;63318;52.406;13.416;2023-05-23T00:48:22;100771.36;;;14.87;57.44
74790;BME280;63318;52.406;13.416;2023-05-23T00:50:50;100768.83;;;14.84;57.18
74790;BME280;63318;52.406;13.416;2023-05-23T00:53:19;100768.04;;;14.82;57.28
74790;BME280;63318;52.406;13.416;2023-05-23T00:55:48;100768.48;;;14.79;57.42
74790;BME280;63318;52.406;13.416;2023-05-23T00:58:16;100761.76;;;14.75;57.37
74790;BME280;63318;52.406;13.416;2023-05-23T01:00:45;100761.30;;;14.73;57.51
74790;BME280;63318;52.406;13.416;2023-05-23T01:03:14;100757.33;;;14.69;57.98
74790;BME280;63318;52.406;13.416;2023-05-23T01:05:42;100753.28;;;14.66;58.07
74790;BME280;63318;52.406;13.416;2023-05-23T01:08:10;100748.80;;;14.62;57.93
74790;BME280;63318;52.406;13.416;2023-05-23T01:10:39;100749.00;;;14.59;57.86
74790;BME280;63318;52.406;13.416;2023-05-23T01:13:16;100747.93;;;14.56;57.46
74790;BME280;63318;52.406;13.416;2023-05-23T01:15:48;100746.96;;;14.52;57.62
74790;BME280;63318;52.406;13.416;2023-05-23T01:18:23;100749.63;;;14.50;57.33
74790;BME280;63318;52.406;13.416;2023-05-23T01:20:55;100748.64;;;14.49;57.48
74790;BME280;63318;52.406;13.416;2023-05-23T01:23:40;100747.14;;;14.48;57.73
74790;BME280;63318;52.406;13.416;2023-05-23T01:26:27;100745.48;;;14.47;57.79
74790;BME280;63318;52.406;13.416;2023-05-23T01:29:02;100746.35;;;14.45;57.46
74790;BME280;63318;52.406;13.416;2023-05-23T01:31:32;100747.40;;;14.46;57.60
74790;BME280;63318;52.406;13.416;2023-05-23T01:34:02;100750.92;;;14.46;57.61
74790;BME280;63318;52.406;13.416;2023-05-23T01:36:33;100747.67;;;14.46;57.50
74790;BME280;63318;52.406;13.416;2023-05-23T01:39:01;100749.30;;;14.46;57.45
74790;BME280;63318;52.406;13.416;2023-05-23T01:41:30;100746.44;;;14.47;57.46
74790;BME280;63318;52.406;13.416;2023-05-23T01:43:58;100737.98;;;14.47;57.80
74790;BME280;63318;52.406;13.416;2023-05-23T01:46:27;100730.73;;;14.47;57.77
74790;BME280;63318;52.406;13.416;2023-05-23T01:48:57;100723.05;;;14.48;57.95
74790;BME280;63318;52.406;13.416;2023-05-23T01:51:26;100722.77;;;14.49;57.72
74790;BME280;63318;52.406;13.416;2023-05-23T01:53:54;100718.56;;;14.49;57.88
74790;BME280;63318;52.406;13.416;2023-05-23T01:56:24;100721.50;;;14.50;57.85
74790;BME280;63318;52.406;13.416;2023-05-23T01:58:52;100719.21;;;14.51;57.73
74790;BME280;63318;52.406;13.416;2023-05-23T02:01:20;100720.38;;;14.51;57.63
74790;BME280;63318;52.406;13.416;2023-05-23T02:03:49;100723.44;;;14.52;57.73
74790;BME280;63318;52.406;13.416;2023-05-23T02:06:18;100725.73;;;14.52;57.82
74790;BME280;63318;52.406;13.416;2023-05-23T02:08:46;100729.75;;;14.53;58.07
74790;BME280;63318;52.406;13.416;2023-05-23T02:11:14;100732.48;;;14.53;58.19
74790;BME280;63318;52.406;13.416;2023-05-23T02:13:42;100736.17;;;14.53;58.45
74790;BME280;63318;52.406;13.416;2023-05-23T02:16:11;100738.73;;;14.53;58.72
74790;BME280;63318;52.406;13.416;2023-05-23T02:18:39;100737.86;;;14.53;58.66
74790;BME280;63318;52.406;13.416;2023-05-23T02:21:07;100735.56;;;14.53;58.51
74790;BME280;63318;52.406;13.416;2023-05-23T02:23:35;100729.36;;;14.52;58.75
74790;BME280;63318;52.406;13.416;2023-05-23T02:26:04;100722.31;;;14.52;58.59
74790;BME280;63318;52.406;13.416;2023-05-23T02:28:32;100716.23;;;14.51;58.84
74790;BME280;63318;52.406;13.416;2023-05-23T02:31:00;100715.58;;;14.51;59.05
74790;BME280;63318;52.406;13.416;2023-05-23T02:33:29;100717.70;;;14.51;59.34
74790;BME280;63318;52.406;13.416;2023-05-23T02:35:57;100716.53;;;14.50;59.34
74790;BME280;63318;52.406;13.416;2023-05-23T02:38:25;100717.30;;;14.51;59.08
74790;BME280;63318;52.406;13.416;2023-05-23T02:40:53;100712.67;;;14.51;59.04
74790;BME280;63318;52.406;13.416;2023-05-23T02:43:21;100715.52;;;14.50;58.83
74790;BME280;63318;52.406;13.416;2023-05-23T02:45:50;100716.20;;;14.51;58.82
74790;BME280;63318;52.406;13.416;2023-05-23T02:48:19;100718.47;;;14.51;58.88
74790;BME280;63318;52.406;13.416;2023-05-23T02:50:47;100712.52;;;14.52;58.91
74790;BME280;63318;52.406;13.416;2023-05-23T02:53:15;100712.36;;;14.53;59.44
74790;BME280;63318;52.406;13.416;2023-05-23T02:55:43;100710.95;;;14.54;59.11
74790;BME280;63318;52.406;13.416;2023-05-23T02:58:12;100710.27;;;14.54;58.95
74790;BME280;63318;52.406;13.416;2023-05-23T03:00:40;100712.71;;;14.55;58.77
74790;BME280;63318;52.406;13.416;2023-05-23T03:03:08;100718.20;;;14.56;58.98
74790;BME280;63318;52.406;13.416;2023-05-23T03:05:36;100721.37;;;14.57;58.83
74790;BME280;63318;52.406;13.416;2023-05-23T03:08:05;100721.13;;;14.58;59.12
74790;BME280;63318;52.406;13.416;2023-05-23T03:10:33;100718.70;;;14.59;59.06
74790;BME280;63318;52.406;13.416;2023-05-23T03:13:01;100712.70;;;14.60;59.52
74790;BME280;63318;52.406;13.416;2023-05-23T03:15:29;100717.73;;;14.61;59.77
74790;BME280;63318;52.406;13.416;2023-05-23T03:17:58;100724.25;;;14.62;59.89
74790;BME280;63318;52.406;13.416;2023-05-23T03:20:26;100729.89;;;14.63;60.43
74790;BME280;63318;52.406;13.416;2023-05-23T03:22:54;100733.96;;;14.64;60.30
74790;BME280;63318;52.406;13.416;2023-05-23T03:25:22;100735.35;;;14.64;60.38
74790;BME280;63318;52.406;13.416;2023-05-23T03:27:51;100733.94;;;14.65;60.28
74790;BME280;63318;52.406;13.416;2023-05-23T03:30:19;100728.95;;;14.66;60.23
74790;BME280;63318;52.406;13.416;2023-05-23T03:32:47;100722.75;;;14.66;60.42
74790;BME280;63318;52.406;13.416;2023-05-23T03:35:15;100714.21;;;14.68;60.75
74790;BME280;63318;52.406;13.416;2023-05-23T03:37:44;100708.84;;;14.68;60.99
74790;BME280;63318;52.406;13.416;2023-05-23T03:40:12;100707.36;;;14.69;61.07
74790;BME280;63318;52.406;13.416;2023-05-23T03:42:40;100701.30;;;14.71;61.23
74790;BME280;63318;52.406;13.416;2023-05-23T03:45:09;100698.34;;;14.71;61.22
74790;BME280;63318;52.406;13.416;2023-05-23T03:47:37;100694.05;;;14.73;61.12
74790;BME280;63318;52.406;13.416;2023-05-23T03:50:07;100691.35;;;14.75;61.06
74790;BME280;63318;52.406;13.416;2023-05-23T03:52:35;100687.82;;;14.76;61.22
74790;BME280;63318;52.406;13.416;2023-05-23T03:55:04;100682.48;;;14.77;61.06
74790;BME280;63318;52.406;13.416;2023-05-23T03:57:33;100678.49;;;14.77;61.02
74790;BME280;63318;52.406;13.416;2023-05-23T04:00:01;100675.42;;;14.77;60.76
74790;BME280;63318;52.406;13.416;2023-05-23T04:02:30;100672.19;;;14.76;61.03
74790;BME280;63318;52.406;13.416;2023-05-23T04:04:58;100667.33;;;14.77;60.91
74790;BME280;63318;52.406;13.416;2023-05-23T04:07:26;100672.70;;;14.77;61.02
74790;BME280;63318;52.406;13.416;2023-05-23T04:09:54;100681.81;;;14.77;60.90
74790;BME280;63318;52.406;13.416;2023-05-23T04:12:23;100691.33;;;14.77;60.81
74790;BME280;63318;52.406;13.416;2023-05-23T04:14:51;100710.77;;;14.77;60.85
74790;BME280;63318;52.406;13.416;2023-05-23T04:17:19;100727.72;;;14.77;61.06
74790;BME280;63318;52.406;13.416;2023-05-23T04:19:47;100726.64;;;14.78;61.10
74790;BME280;63318;52.406;13.416;2023-05-23T04:22:16;100723.66;;;14.79;61.25
74790;BME280;63318;52.406;13.416;2023-05-23T04:24:44;100718.21;;;14.80;61.09
74790;BME280;63318;52.406;13.416;2023-05-23T04:27:12;100715.30;;;14.82;61.25
74790;BME280;63318;52.406;13.416;2023-05-23T04:29:40;100708.39;;;14.83;61.36
74790;BME280;63318;52.406;13.416;2023-05-23T04:32:09;100705.01;;;14.85;61.54
74790;BME280;63318;52.406;13.416;2023-05-23T04:34:37;100700.17;;;14.86;61.81
74790;BME280;63318;52.406;13.416;2023-05-23T04:37:05;100700.20;;;14.88;61.86
74790;BME280;63318;52.406;13.416;2023-05-23T04:39:33;100704.42;;;14.90;61.73
74790;BME280;63318;52.406;13.416;2023-05-23T04:42:02;100701.14;;;14.93;61.71
74790;BME280;63318;52.406;13.416;2023-05-23T04:44:30;100696.17;;;14.95;61.69
74790;BME280;63318;52.406;13.416;2023-05-23T04:46:58;100691.77;;;14.97;61.83
74790;BME280;63318;52.406;13.416;2023-05-23T04:49:26;100695.54;;;14.99;61.78
74790;BME280;63318;52.406;13.416;2023-05-23T04:51:55;100699.39;;;15.00;61.58
74790;BME280;63318;52.406;13.416;2023-05-23T04:54:23;100700.87;;;15.01;61.39
74790;BME280;63318;52.406;13.416;2023-05-23T04:56:51;100702.64;;;15.03;61.48
74790;BME280;63318;52.406;13.416;2023-05-23T04:59:19;100704.48;;;15.04;61.73
74790;BME280;63318;52.406;13.416;2023-05-23T05:01:48;100703.28;;;15.05;61.57
74790;BME280;63318;52.406;13.416;2023-05-23T05:04:16;100702.88;;;15.05;61.85
74790;BME280;63318;52.406;13.416;2023-05-23T05:06:44;100704.27;;;15.07;61.85
74790;BME280;63318;52.406;13.416;2023-05-23T05:09:13;100700.27;;;15.08;62.24
74790;BME280;63318;52.406;13.416;2023-05-23T05:11:41;100697.78;;;15.09;62.44
74790;BME280;63318;52.406;13.416;2023-05-23T05:14:09;100698.64;;;15.11;62.39
74790;BME280;63318;52.406;13.416;2023-05-23T05:16:37;100699.27;;;15.13;62.82
74790;BME280;63318;52.406;13.416;2023-05-23T05:19:06;100697.00;;;15.15;63.06
74790;BME280;63318;52.406;13.416;2023-05-23T05:21:34;100692.30;;;15.16;63.12
74790;BME280;63318;52.406;13.416;2023-05-23T05:24:02;100691.55;;;15.17;63.39
74790;BME280;63318;52.406;13.416;2023-05-23T05:26:30;100689.79;;;15.18;63.26
74790;BME280;63318;52.406;13.416;2023-05-23T05:28:59;100697.81;;;15.20;63.71
74790;BME280;63318;52.406;13.416;2023-05-23T05:31:27;100697.42;;;15.21;63.88
74790;BME280;63318;52.406;13.416;2023-05-23T05:33:56;100704.21;;;15.22;63.76
74790;BME280;63318;52.406;13.416;2023-05-23T05:36:24;100708.17;;;15.23;63.24
74790;BME280;63318;52.406;13.416;2023-05-23T05:38:52;100710.55;;;15.24;63.59
74790;BME280;63318;52.406;13.416;2023-05-23T05:41:20;100713.91;;;15.25;63.16
74790;BME280;63318;52.406;13.416;2023-05-23T05:43:49;100716.29;;;15.26;63.20
74790;BME280;63318;52.406;13.416;2023-05-23T05:46:18;100716.71;;;15.28;63.81
74790;BME280;63318;52.406;13.416;2023-05-23T05:48:46;100718.05;;;15.29;64.34
74790;BME280;63318;52.406;13.416;2023-05-23T05:51:15;100716.74;;;15.30;64.29
74790;BME280;63318;52.406;13.416;2023-05-23T05:53:45;100722.38;;;15.30;64.32
74790;BME280;63318;52.406;13.416;2023-05-23T05:56:13;100718.73;;;15.31;64.66
74790;BME280;63318;52.406;13.416;2023-05-23T05:58:42;100712.23;;;15.32;64.93
74790;BME280;63318;52.406;13.416;2023-05-23T06:01:10;100713.33;;;15.33;65.27
74790;BME280;63318;52.406;13.416;2023-05-23T06:03:38;100709.55;;;15.34;65.56
74790;BME280;63318;52.406;13.416;2023-05-23T06:06:07;100704.98;;;15.36;65.80
74790;BME280;63318;52.406;13.416;2023-05-23T06:08:35;100704.00;;;15.37;65.91
74790;BME280;63318;52.406;13.416;2023-05-23T06:11:04;100700.73;;;15.40;66.17
74790;BME280;63318;52.406;13.416;2023-05-23T06:13:32;100699.43;;;15.43;66.55
74790;BME280;63318;52.406;13.416;2023-05-23T06:16:01;100700.48;;;15.45;66.44
74790;BME280;63318;52.406;13.416;2023-05-23T06:18:29;100699.48;;;15.48;66.40
74790;BME280;63318;52.406;13.416;2023-05-23T06:20:58;100695.55;;;15.52;66.24
74790;BME280;63318;52.406;13.416;2023-05-23T06:23:26;100697.98;;;15.56;66.21
74790;BME280;63318;52.406;13.416;2023-05-23T06:25:54;100699.13;;;15.61;65.83
74790;BME280;63318;52.406;13.416;2023-05-23T06:28:23;100699.21;;;15.65;65.67
74790;BME280;63318;52.406;13.416;2023-05-23T06:30:51;100697.18;;;15.69;65.61
74790;BME280;63318;52.406;13.416;2023-05-23T06:33:20;100696.64;;;15.74;65.81
74790;BME280;63318;52.406;13.416;2023-05-23T06:35:48;100704.61;;;15.78;65.79
74790;BME280;63318;52.406;13.416;2023-05-23T06:38:17;100708.04;;;15.84;65.63
74790;BME280;63318;52.406;13.416;2023-05-23T06:40:45;100710.15;;;15.90;65.24
74790;BME280;63318;52.406;13.416;2023-05-23T06:43:13;100710.09;;;15.99;65.17
74790;BME280;63318;52.406;13.416;2023-05-23T06:45:41;100713.48;;;16.12;65.11
74790;BME280;63318;52.406;13.416;2023-05-23T06:48:11;100709.20;;;16.26;64.74
74790;BME280;63318;52.406;13.416;2023-05-23T06:50:39;100711.95;;;16.54;64.62
74790;BME280;63318;52.406;13.416;2023-05-23T06:53:07;100713.83;;;16.95;63.47
74790;BME280;63318;52.406;13.416;2023-05-23T06:55:35;100709.23;;;17.37;63.11
74790;BME280;63318;52.406;13.416;2023-05-23T06:58:05;100700.35;;;17.79;61.66
74790;BME280;63318;52.406;13.416;2023-05-23T07:00:34;100698.00;;;18.16;60.50
74790;BME280;63318;52.406;13.416;2023-05-23T07:03:02;100697.75;;;18.62;59.85
74790;BME280;63318;52.406;13.416;2023-05-23T07:05:31;100697.89;;;18.95;59.04
74790;BME280;63318;52.406;13.416;2023-05-23T07:08:00;100694.70;;;19.13;58.14
74790;BME280;63318;52.406;13.416;2023-05-23T07:10:28;100694.60;;;19.31;57.44
74790;BME280;63318;52.406;13.416;2023-05-23T07:12:56;100693.65;;;19.51;56.66
74790;BME280;63318;52.406;13.416;2023-05-23T07:15:25;100692.97;;;19.79;57.16
74790;BME280;63318;52.406;13.416;2023-05-23T07:17:53;100695.14;;;20.08;55.97
74790;BME280;63318;52.406;13.416;2023-05-23T07:20:22;100696.55;;;20.37;56.02
74790;BME280;63318;52.406;13.416;2023-05-23T07:22:51;100696.48;;;20.77;54.77
74790;BME280;63318;52.406;13.416;2023-05-23T07:25:19;100700.55;;;20.94;52.68
74790;BME280;63318;52.406;13.416;2023-05-23T07:27:48;100697.64;;;21.04;52.97
74790;BME280;63318;52.406;13.416;2023-05-23T07:30:16;100699.28;;;21.34;53.05
74790;BME280;63318;52.406;13.416;2023-05-23T07:32:44;100696.27;;;21.62;52.27
74790;BME280;63318;52.406;13.416;2023-05-23T07:35:13;100693.13;;;21.73;51.95
74790;BME280;63318;52.406;13.416;2023-05-23T07:37:41;100687.17;;;21.82;51.51
74790;BME280;63318;52.406;13.416;2023-05-23T07:40:10;100685.05;;;21.88;50.93
74790;BME280;63318;52.406;13.416;2023-05-23T07:42:39;100684.58;;;21.91;50.72
74790;BME280;63318;52.406;13.416;2023-05-23T07:45:08;100681.52;;;21.89;49.92
74790;BME280;63318;52.406;13.416;2023-05-23T07:47:37;100684.10;;;21.83;49.32
74790;BME280;63318;52.406;13.416;2023-05-23T07:50:07;100684.86;;;21.83;49.88
74790;BME280;63318;52.406;13.416;2023-05-23T07:52:36;100686.20;;;22.15;50.43
74790;BME280;63318;52.406;13.416;2023-05-23T07:55:05;100683.64;;;22.35;49.77
74790;BME280;63318;52.406;13.416;2023-05-23T07:57:34;100683.98;;;22.50;48.94
74790;BME280;63318;52.406;13.416;2023-05-23T08:00:02;100687.10;;;22.66;48.73
74790;BME280;63318;52.406;13.416;2023-05-23T08:02:31;100693.14;;;22.72;48.32
74790;BME280;63318;52.406;13.416;2023-05-23T08:04:59;100693.23;;;22.73;48.22
74790;BME280;63318;52.406;13.416;2023-05-23T08:07:27;100697.29;;;22.83;48.54
74790;BME280;63318;52.406;13.416;2023-05-23T08:09:56;100704.64;;;23.09;48.69
74790;BME280;63318;52.406;13.416;2023-05-23T08:12:24;100706.41;;;23.25;48.42
74790;BME280;63318;52.406;13.416;2023-05-23T08:14:52;100706.48;;;23.40;48.45
74790;BME280;63318;52.406;13.416;2023-05-23T08:17:21;100709.52;;;23.64;48.12
74790;BME280;63318;52.406;13.416;2023-05-23T08:19:49;100704.02;;;23.91;47.47
74790;BME280;63318;52.406;13.416;2023-05-23T08:22:17;100703.77;;;24.14;46.80
74790;BME280;63318;52.406;13.416;2023-05-23T08:24:45;100703.15;;;24.34;47.06
74790;BME280;63318;52.406;13.416;2023-05-23T08:27:14;100700.09;;;24.55;46.95
74790;BME280;63318;52.406;13.416;2023-05-23T08:29:42;100709.98;;;24.77;45.98
74790;BME280;63318;52.406;13.416;2023-05-23T08:32:11;100715.42;;;25.01;46.24
74790;BME280;63318;52.406;13.416;2023-05-23T08:34:40;100714.77;;;25.20;45.57
74790;BME280;63318;52.406;13.416;2023-05-23T08:37:09;100715.98;;;25.34;45.93
74790;BME280;63318;52.406;13.416;2023-05-23T08:39:37;100720.19;;;25.41;45.25
74790;BME280;63318;52.406;13.416;2023-05-23T08:42:06;100722.99;;;25.53;45.33
74790;BME280;63318;52.406;13.416;2023-05-23T08:44:34;100725.91;;;25.69;45.14
74790;BME280;63318;52.406;13.416;2023-05-23T08:47:04;100726.83;;;25.86;44.84
74790;BME280;63318;52.406;13.416;2023-05-23T08:49:34;100730.38;;;26.06;45.08
74790;BME280;63318;52.406;13.416;2023-05-23T08:52:04;100726.92;;;26.25;44.58
74790;BME280;63318;52.406;13.416;2023-05-23T08:54:37;100728.45;;;26.48;44.02
74790;BME280;63318;52.406;13.416;2023-05-23T08:57:06;100726.33;;;26.72;43.87
74790;BME280;63318;52.406;13.416;2023-05-23T08:59:35;100728.46;;;26.93;42.68
74790;BME280;63318;52.406;13.416;2023-05-23T09:02:09;100731.72;;;27.04;43.31
74790;BME280;63318;52.406;13.416;2023-05-23T09:04:38;100734.70;;;27.13;43.08
74790;BME280;63318;52.406;13.416;2023-05-23T09:07:07;100743.73;;;27.29;43.46
74790;BME280;63318;52.406;13.416;2023-05-23T09:09:35;100746.18;;;27.45;42.84
74790;BME280;63318;52.406;13.416;2023-05-23T09:12:04;100745.73;;;27.63;42.58
74790;BME280;63318;52.406;13.416;2023-05-23T09:14:32;100744.41;;;27.74;42.34
74790;BME280;63318;52.406;13.416;2023-05-23T09:17:04;100748.91;;;27.82;41.39
74790;BME280;63318;52.406;13.416;2023-05-23T09:19:32;100751.13;;;27.83;41.48
74790;BME280;63318;52.406;13.416;2023-05-23T09:22:02;100753.78;;;27.87;41.91
74790;BME280;63318;52.406;13.416;2023-05-23T09:24:35;100748.92;;;27.84;41.60
74790;BME280;63318;52.406;13.416;2023-05-23T09:27:06;100754.70;;;27.82;41.89
74790;BME280;63318;52.406;13.416;2023-05-23T09:29:37;100754.96;;;27.96;42.44
74790;BME280;63318;52.406;13.416;2023-05-23T09:32:13;100751.02;;;28.15;42.31
74790;BME280;63318;52.406;13.416;2023-05-23T09:34:55;100752.71;;;28.30;41.79
74790;BME280;63318;52.406;13.416;2023-05-23T09:37:29;100761.95;;;28.40;41.65
74790;BME280;63318;52.406;13.416;2023-05-23T09:39:59;100760.73;;;28.50;41.55
74790;BME280;63318;52.406;13.416;2023-05-23T09:42:32;100761.95;;;28.47;41.26
74790;BME280;63318;52.406;13.416;2023-05-23T09:45:01;100761.29;;;28.30;41.26
74790;BME280;63318;52.406;13.416;2023-05-23T09:47:29;100765.21;;;28.06;41.30
74790;BME280;63318;52.406;13.416;2023-05-23T09:49:57;100771.25;;;27.80;41.45
74790;BME280;63318;52.406;13.416;2023-05-23T09:52:26;100772.02;;;27.56;41.65
74790;BME280;63318;52.406;13.416;2023-05-23T09:54:54;100771.41;;;27.32;42.40
74790;BME280;63318;52.406;13.416;2023-05-23T09:57:23;100770.81;;;27.07;42.63
74790;BME280;63318;52.406;13.416;2023-05-23T09:59:53;100770.13;;;26.84;43.08
74790;BME280;63318;52.406;13.416;2023-05-23T10:02:44;100770.18;;;26.70;43.53
74790;BME280;63318;52.406;13.416;2023-05-23T10:05:32;100772.71;;;26.60;44.40
74790;BME280;63318;52.406;13.416;2023-05-23T10:08:03;100774.83;;;26.46;44.47
74790;BME280;63318;52.406;13.416;2023-05-23T10:10:41;100775.73;;;26.33;45.15
74790;BME280;63318;52.406;13.416;2023-05-23T10:13:23;100778.21;;;26.21;45.50
74790;BME280;63318;52.406;13.416;2023-05-23T10:15:54;100778.99;;;26.07;45.59
74790;BME280;63318;52.406;13.416;2023-05-23T10:18:28;100774.98;;;25.95;45.67
74790;BME280;63318;52.406;13.416;2023-05-23T10:21:03;100777.64;;;25.81;46.29
74790;BME280;63318;52.406;13.416;2023-05-23T10:23:34;100775.67;;;25.69;46.75
74790;BME280;63318;52.406;13.416;2023-05-23T10:26:04;100778.71;;;25.59;46.84
74790;BME280;63318;52.406;13.416;2023-05-23T10:28:33;100777.08;;;25.50;47.31
74790;BME280;63318;52.406;13.416;2023-05-23T10:31:02;100780.45;;;25.42;47.66
74790;BME280;63318;52.406;13.416;2023-05-23T10:33:35;100776.23;;;25.35;47.90
74790;BME280;63318;52.406;13.416;2023-05-23T10:36:11;100777.75;;;25.30;48.08
74790;BME280;63318;52.406;13.416;2023-05-23T10:38:48;100777.09;;;25.23;48.51
74790;BME280;63318;52.406;13.416;2023-05-23T10:41:22;100781.62;;;25.15;48.42
74790;BME280;63318;52.406;13.416;2023-05-23T10:43:56;100786.83;;;25.05;48.73
74790;BME280;63318;52.406;13.416;2023-05-23T10:46:51;100787.92;;;24.96;49.38
74790;BME280;63318;52.406;13.416;2023-05-23T10:49:20;100789.40;;;24.94;49.40
74790;BME280;63318;52.406;13.416;2023-05-23T10:51:51;100791.63;;;24.89;49.82
74790;BME280;63318;52.406;13.416;2023-05-23T10:54:20;100794.27;;;24.77;49.84
74790;BME280;63318;52.406;13.416;2023-05-23T10:57:03;100791.70;;;24.66;50.44
74790;BME280;63318;52.406;13.416;2023-05-23T10:59:32;100794.48;;;24.55;50.68
74790;BME280;63318;52.406;13.416;2023-05-23T11:02:04;100795.15;;;24.56;50.90
74790;BME280;63318;52.406;13.416;2023-05-23T11:04:37;100798.77;;;24.60;51.00
74790;BME280;63318;52.406;13.416;2023-05-23T11:07:05;100802.71;;;24.84;51.07
74790;BME280;63318;52.406;13.416;2023-05-23T11:10:09;100805.11;;;25.02;51.04
74790;BME280;63318;52.406;13.416;2023-05-23T11:12:38;100807.55;;;24.99;50.09
74790;BME280;63318;52.406;13.416;2023-05-23T11:15:21;100807.85;;;24.88;50.60
74790;BME280;63318;52.406;13.416;2023-05-23T11:17:56;100809.56;;;24.78;50.70
74790;BME280;63318;52.406;13.416;2023-05-23T11:20:25;100809.52;;;24.68;50.60
74790;BME280;63318;52.406;13.416;2023-05-23T11:23:01;100811.09;;;24.56;50.89
74790;BME280;63318;52.406;13.416;2023-05-23T11:25:43;100818.33;;;24.36;50.86
74790;BME280;63318;52.406;13.416;2023-05-23T11:28:13;100817.86;;;24.16;51.35
74790;BME280;63318;52.406;13.416;2023-05-23T11:30:41;100814.98;;;24.01;51.42
74790;BME280;63318;52.406;13.416;2023-05-23T11:33:11;100815.67;;;23.85;51.71
74790;BME280;63318;52.406;13.416;2023-05-23T11:35:40;100813.38;;;23.73;52.10
74790;BME280;63318;52.406;13.416;2023-05-23T11:38:10;100815.25;;;23.66;52.37
74790;BME280;63318;52.406;13.416;2023-05-23T11:40:40;100817.79;;;23.58;52.37
74790;BME280;63318;52.406;13.416;2023-05-23T11:43:10;100817.50;;;23.51;52.56
74790;BME280;63318;52.406;13.416;2023-05-23T11:45:39;100818.61;;;23.40;52.40
74790;BME280;63318;52.406;13.416;2023-05-23T11:48:09;100820.25;;;23.26;52.54
74790;BME280;63318;52.406;13.416;2023-05-23T11:50:46;100819.98;;;23.13;53.40
74790;BME280;63318;52.406;13.416;2023-05-23T11:53:16;100825.23;;;22.97;54.20
74790;BME280;63318;52.406;13.416;2023-05-23T11:55:52;100828.73;;;22.83;55.25
74790;BME280;63318;52.406;13.416;2023-05-23T11:58:21;100825.64;;;22.70;55.46
74790;BME280;63318;52.406;13.416;2023-05-23T12:00:59;100830.64;;;22.61;55.90
74790;BME280;63318;52.406;13.416;2023-05-23T12:03:27;100834.55;;;22.50;55.84
74790;BME280;63318;52.406;13.416;2023-05-23T12:05:57;100838.69;;;22.37;55.94
74790;BME280;63318;52.406;13.416;2023-05-23T12:08:26;100841.41;;;22.23;56.17
74790;BME280;63318;52.406;13.416;2023-05-23T12:10:57;100844.59;;;22.12;56.47
74790;BME280;63318;52.406;13.416;2023-05-23T12:13:27;100838.28;;;22.01;56.37
74790;BME280;63318;52.406;13.416;2023-05-23T12:15:57;100838.15;;;21.91;56.48
74790;BME280;63318;52.406;13.416;2023-05-23T12:18:28;100838.55;;;21.81;56.43
74790;BME280;63318;52.406;13.416;2023-05-23T12:21:00;100841.25;;;21.69;56.56
74790;BME280;63318;52.406;13.416;2023-05-23T12:23:29;100843.51;;;21.59;57.05
74790;BME280;63318;52.406;13.416;2023-05-23T12:25:58;100843.77;;;21.51;57.13
74790;BME280;63318;52.406;13.416;2023-05-23T12:28:36;100843.17;;;21.43;57.19
74790;BME280;63318;52.406;13.416;2023-05-23T12:31:14;100845.38;;;21.36;57.27
74790;BME280;63318;52.406;13.416;2023-05-23T12:33:44;100845.20;;;21.29;57.42
74790;BME280;63318;52.406;13.416;2023-05-23T12:36:14;100845.98;;;21.21;57.21
74790;BME280;63318;52.406;13.416;2023-05-23T12:38:43;100848.21;;;21.12;57.56
74790;BME280;63318;52.406;13.416;2023-05-23T12:41:14;100849.84;;;21.05;57.72
74790;BME280;63318;52.406;13.416;2023-05-23T12:43:50;100850.08;;;20.99;57.98
74790;BME280;63318;52.406;13.416;2023-05-23T12:46:19;100852.31;;;20.93;57.99
74790;BME280;63318;52.406;13.416;2023-05-23T12:48:47;100849.95;;;20.87;58.00
74790;BME280;63318;52.406;13.416;2023-05-23T12:51:16;100847.56;;;20.82;58.22
74790;BME280;63318;52.406;13.416;2023-05-23T12:53:48;100850.85;;;20.75;58.49